sensor_id;sensor_type;location;lat;lon;timestamp;pressure;altitude;pressure_sealevel;temperature
45565;BMP280;31280;40.408;17.282;2023-01-31T00:02:01;101293.06;;;9.36
45565;BMP280;31280;40.408;17.282;2023-01-31T00:04:26;101290.78;;;9.27
45565;BMP280;31280;40.408;17.282;2023-01-31T00:06:52;101307.66;;;9.28
45565;BMP280;31280;40.408;17.282;2023-01-31T00:09:18;101296.13;;;9.24
45565;BMP280;31280;40.408;17.282;2023-01-31T00:11:44;101300.75;;;9.10
45565;BMP280;31280;40.408;17.282;2023-01-31T00:14:15;101305.34;;;9.06
45565;BMP280;31280;40.408;17.282;2023-01-31T00:16:42;101299.59;;;8.93
45565;BMP280;31280;40.408;17.282;2023-01-31T00:19:07;101303.03;;;8.90
45565;BMP280;31280;40.408;17.282;2023-01-31T00:21:33;101289.19;;;8.78
45565;BMP280;31280;40.408;17.282;2023-01-31T00:23:58;101305.31;;;8.85
45565;BMP280;31280;40.408;17.282;2023-01-31T00:26:27;101304.56;;;8.85
45565;BMP280;31280;40.408;17.282;2023-01-31T00:28:55;101298.41;;;8.81
45565;BMP280;31280;40.408;17.282;2023-01-31T00:31:22;101283.06;;;8.71
45565;BMP280;31280;40.408;17.282;2023-01-31T00:33:50;101318.38;;;8.83
45565;BMP280;31280;40.408;17.282;2023-01-31T00:36:19;101320.66;;;8.81
45565;BMP280;31280;40.408;17.282;2023-01-31T00:38:53;101295.34;;;8.65
45565;BMP280;31280;40.408;17.282;2023-01-31T00:41:21;101324.88;;;8.79
45565;BMP280;31280;40.408;17.282;2023-01-31T00:43:47;101317.59;;;8.76
45565;BMP280;31280;40.408;17.282;2023-01-31T00:46:13;101319.53;;;8.75
45565;BMP280;31280;40.408;17.282;2023-01-31T00:48:39;101310.69;;;8.75
45565;BMP280;31280;40.408;17.282;2023-01-31T00:51:05;101324.88;;;8.72
45565;BMP280;31280;40.408;17.282;2023-01-31T00:53:31;101323.31;;;8.64
45565;BMP280;31280;40.408;17.282;2023-01-31T00:56:08;101325.25;;;8.70
45565;BMP280;31280;40.408;17.282;2023-01-31T00:58:35;101332.94;;;8.75
45565;BMP280;31280;40.408;17.282;2023-01-31T01:01:09;101337.91;;;8.77
45565;BMP280;31280;40.408;17.282;2023-01-31T01:03:35;101334.47;;;8.76
45565;BMP280;31280;40.408;17.282;2023-01-31T01:06:02;101341.38;;;8.77
45565;BMP280;31280;40.408;17.282;2023-01-31T01:08:28;101336.75;;;8.78
45565;BMP280;31280;40.408;17.282;2023-01-31T01:10:54;101331.38;;;8.78
45565;BMP280;31280;40.408;17.282;2023-01-31T01:13:20;101339.44;;;8.78
45565;BMP280;31280;40.408;17.282;2023-01-31T01:15:46;101330.25;;;8.79
45565;BMP280;31280;40.408;17.282;2023-01-31T01:18:11;101319.50;;;8.79
45565;BMP280;31280;40.408;17.282;2023-01-31T01:20:37;101314.88;;;8.69
45565;BMP280;31280;40.408;17.282;2023-01-31T01:23:03;101352.91;;;8.74
45565;BMP280;31280;40.408;17.282;2023-01-31T01:25:28;101350.97;;;8.75
45565;BMP280;31280;40.408;17.282;2023-01-31T01:27:54;101364.41;;;8.75
45565;BMP280;31280;40.408;17.282;2023-01-31T01:30:20;101344.44;;;8.65
45565;BMP280;31280;40.408;17.282;2023-01-31T01:32:46;101360.56;;;8.72
45565;BMP280;31280;40.408;17.282;2023-01-31T01:35:11;101358.25;;;8.71
45565;BMP280;31280;40.408;17.282;2023-01-31T01:37:37;101339.81;;;8.59
45565;BMP280;31280;40.408;17.282;2023-01-31T01:40:03;101349.78;;;8.69
45565;BMP280;31280;40.408;17.282;2023-01-31T01:42:33;101350.56;;;8.66
45565;BMP280;31280;40.408;17.282;2023-01-31T01:45:01;101345.56;;;8.64
45565;BMP280;31280;40.408;17.282;2023-01-31T01:47:50;101334.81;;;8.61
45565;BMP280;31280;40.408;17.282;2023-01-31T01:50:24;101354.00;;;8.70
45565;BMP280;31280;40.408;17.282;2023-01-31T01:55:27;101350.94;;;8.64
45565;BMP280;31280;40.408;17.282;2023-01-31T01:58:01;101342.88;;;8.61
45565;BMP280;31280;40.408;17.282;2023-01-31T02:00:30;101335.97;;;8.60
45565;BMP280;31280;40.408;17.282;2023-01-31T02:02:58;101340.59;;;8.63
45565;BMP280;31280;40.408;17.282;2023-01-31T02:05:34;101345.16;;;8.62
45565;BMP280;31280;40.408;17.282;2023-01-31T02:08:01;101345.53;;;8.57
45565;BMP280;31280;40.408;17.282;2023-01-31T02:10:32;101345.53;;;8.54
45565;BMP280;31280;40.408;17.282;2023-01-31T02:12:59;101332.06;;;8.40
45565;BMP280;31280;40.408;17.282;2023-01-31T02:15:25;101332.06;;;8.40
45565;BMP280;31280;40.408;17.282;2023-01-31T02:17:52;101352.81;;;8.47
45565;BMP280;31280;40.408;17.282;2023-01-31T02:42:42;101353.88;;;8.28
45565;BMP280;31280;40.408;17.282;2023-01-31T02:45:34;101348.47;;;8.22
45565;BMP280;31280;40.408;17.282;2023-01-31T02:53:33;101351.22;;;8.39
45565;BMP280;31280;40.408;17.282;2023-01-31T02:56:06;101343.56;;;8.37
45565;BMP280;31280;40.408;17.282;2023-01-31T02:59:06;101350.47;;;8.45
45565;BMP280;31280;40.408;17.282;2023-01-31T03:01:36;101344.75;;;8.47
45565;BMP280;31280;40.408;17.282;2023-01-31T03:04:04;101353.94;;;8.49
45565;BMP280;31280;40.408;17.282;2023-01-31T03:09:17;101330.03;;;8.20
45565;BMP280;31280;40.408;17.282;2023-01-31T03:17:56;101356.53;;;8.25
45565;BMP280;31280;40.408;17.282;2023-01-31T03:20:43;101355.75;;;8.28
45565;BMP280;31280;40.408;17.282;2023-01-31T03:23:15;101340.47;;;8.35
45565;BMP280;31280;40.408;17.282;2023-01-31T03:25:43;101326.63;;;8.30
45565;BMP280;31280;40.408;17.282;2023-01-31T03:28:14;101332.84;;;8.44
45565;BMP280;31280;40.408;17.282;2023-01-31T03:33:55;101324.47;;;8.56
45565;BMP280;31280;40.408;17.282;2023-01-31T03:36:40;101325.59;;;8.55
45565;BMP280;31280;40.408;17.282;2023-01-31T03:39:18;101312.16;;;8.55
45565;BMP280;31280;40.408;17.282;2023-01-31T03:41:57;101299.91;;;8.61
45565;BMP280;31280;40.408;17.282;2023-01-31T03:47:38;101325.25;;;8.63
45565;BMP280;31280;40.408;17.282;2023-01-31T03:50:18;101352.84;;;8.64
45565;BMP280;31280;40.408;17.282;2023-01-31T03:52:56;101360.09;;;8.50
45565;BMP280;31280;40.408;17.282;2023-01-31T03:55:29;101367.41;;;8.56
45565;BMP280;31280;40.408;17.282;2023-01-31T03:57:57;101363.19;;;8.55
45565;BMP280;31280;40.408;17.282;2023-01-31T04:00:24;101352.44;;;8.55
45565;BMP280;31280;40.408;17.282;2023-01-31T04:02:55;101363.56;;;8.54
45565;BMP280;31280;40.408;17.282;2023-01-31T04:05:23;101344.38;;;8.58
45565;BMP280;31280;40.408;17.282;2023-01-31T04:07:56;101347.84;;;8.62
45565;BMP280;31280;40.408;17.282;2023-01-31T04:10:22;101366.28;;;8.67
45565;BMP280;31280;40.408;17.282;2023-01-31T04:12:47;101363.63;;;8.71
45565;BMP280;31280;40.408;17.282;2023-01-31T04:15:14;101362.06;;;8.70
45565;BMP280;31280;40.408;17.282;2023-01-31T04:17:40;101337.84;;;8.53
45565;BMP280;31280;40.408;17.282;2023-01-31T04:20:06;101356.63;;;8.49
45565;BMP280;31280;40.408;17.282;2023-01-31T04:22:32;101354.72;;;8.46
45565;BMP280;31280;40.408;17.282;2023-01-31T04:24:58;101340.47;;;8.35
45565;BMP280;31280;40.408;17.282;2023-01-31T04:27:24;101357.34;;;8.39
45565;BMP280;31280;40.408;17.282;2023-01-31T04:29:50;101362.34;;;8.37
45565;BMP280;31280;40.408;17.282;2023-01-31T04:32:16;101358.09;;;8.40
45565;BMP280;31280;40.408;17.282;2023-01-31T04:34:41;101363.47;;;8.33
45565;BMP280;31280;40.408;17.282;2023-01-31T04:37:07;101328.16;;;8.17
45565;BMP280;31280;40.408;17.282;2023-01-31T04:39:33;101356.97;;;8.37
45565;BMP280;31280;40.408;17.282;2023-01-31T04:41:58;101325.09;;;8.26
45565;BMP280;31280;40.408;17.282;2023-01-31T04:44:24;101349.28;;;8.36
45565;BMP280;31280;40.408;17.282;2023-01-31T04:46:50;101360.03;;;8.39
45565;BMP280;31280;40.408;17.282;2023-01-31T04:49:15;101338.91;;;8.38
45565;BMP280;31280;40.408;17.282;2023-01-31T04:51:41;101342.78;;;8.33
45565;BMP280;31280;40.408;17.282;2023-01-31T04:54:06;101357.41;;;8.46
45565;BMP280;31280;40.408;17.282;2023-01-31T04:56:32;101257.44;;;7.82
45565;BMP280;31280;40.408;17.282;2023-01-31T04:58:58;101356.28;;;8.57
45565;BMP280;31280;40.408;17.282;2023-01-31T05:01:25;101359.72;;;8.55
45565;BMP280;31280;40.408;17.282;2023-01-31T05:03:51;101364.34;;;8.54
45565;BMP280;31280;40.408;17.282;2023-01-31T05:06:17;101345.91;;;8.46
45565;BMP280;31280;40.408;17.282;2023-01-31T05:08:43;101357.00;;;8.44
45565;BMP280;31280;40.408;17.282;2023-01-31T05:11:09;101364.69;;;8.53
45565;BMP280;31280;40.408;17.282;2023-01-31T05:13:35;101364.66;;;8.49
45565;BMP280;31280;40.408;17.282;2023-01-31T05:16:08;101348.16;;;8.40
45565;BMP280;31280;40.408;17.282;2023-01-31T05:18:35;101349.34;;;8.53
45565;BMP280;31280;40.408;17.282;2023-01-31T05:21:02;101352.03;;;8.50
45565;BMP280;31280;40.408;17.282;2023-01-31T05:23:29;101349.72;;;8.48
45565;BMP280;31280;40.408;17.282;2023-01-31T05:25:54;101355.09;;;8.48
45565;BMP280;31280;40.408;17.282;2023-01-31T05:28:20;101357.41;;;8.46
45565;BMP280;31280;40.408;17.282;2023-01-31T05:30:46;101353.94;;;8.49
45565;BMP280;31280;40.408;17.282;2023-01-31T05:33:12;101346.66;;;8.53
45565;BMP280;31280;40.408;17.282;2023-01-31T05:35:38;101354.34;;;8.58
45565;BMP280;31280;40.408;17.282;2023-01-31T05:38:04;101352.84;;;8.60
45565;BMP280;31280;40.408;17.282;2023-01-31T05:40:30;101360.16;;;8.63
45565;BMP280;31280;40.408;17.282;2023-01-31T05:42:57;101355.50;;;8.50
45565;BMP280;31280;40.408;17.282;2023-01-31T05:45:26;101366.25;;;8.57
45565;BMP280;31280;40.408;17.282;2023-01-31T05:47:52;101358.19;;;8.57
45565;BMP280;31280;40.408;17.282;2023-01-31T05:50:18;101363.19;;;8.62
45565;BMP280;31280;40.408;17.282;2023-01-31T05:52:55;101356.69;;;8.63
45565;BMP280;31280;40.408;17.282;2023-01-31T05:55:23;101343.63;;;8.58
45565;BMP280;31280;40.408;17.282;2023-01-31T05:57:48;101356.69;;;8.63
45565;BMP280;31280;40.408;17.282;2023-01-31T06:00:14;101355.91;;;8.59
45565;BMP280;31280;40.408;17.282;2023-01-31T06:02:41;101361.25;;;8.52
45565;BMP280;31280;40.408;17.282;2023-01-31T06:05:07;101368.16;;;8.53
45565;BMP280;31280;40.408;17.282;2023-01-31T06:07:33;101376.59;;;8.55
45565;BMP280;31280;40.408;17.282;2023-01-31T06:09:59;101373.53;;;8.60
45565;BMP280;31280;40.408;17.282;2023-01-31T06:12:25;101373.94;;;8.62
45565;BMP280;31280;40.408;17.282;2023-01-31T06:14:50;101364.28;;;8.47
45565;BMP280;31280;40.408;17.282;2023-01-31T06:17:16;101378.88;;;8.46
45565;BMP280;31280;40.408;17.282;2023-01-31T06:19:42;101395.78;;;8.57
45565;BMP280;31280;40.408;17.282;2023-01-31T06:22:08;101401.97;;;8.61
45565;BMP280;31280;40.408;17.282;2023-01-31T06:24:34;101401.97;;;8.64
45565;BMP280;31280;40.408;17.282;2023-01-31T06:26:59;101398.13;;;8.65
45565;BMP280;31280;40.408;17.282;2023-01-31T06:29:25;101393.53;;;8.69
45565;BMP280;31280;40.408;17.282;2023-01-31T06:31:51;101391.97;;;8.61
45565;BMP280;31280;40.408;17.282;2023-01-31T06:34:18;101397.78;;;8.74
45565;BMP280;31280;40.408;17.282;2023-01-31T06:36:44;101387.38;;;8.62
45565;BMP280;31280;40.408;17.282;2023-01-31T06:39:12;101393.91;;;8.61
45565;BMP280;31280;40.408;17.282;2023-01-31T06:41:38;101392.75;;;8.62
45565;BMP280;31280;40.408;17.282;2023-01-31T06:44:04;101405.84;;;8.81
45565;BMP280;31280;40.408;17.282;2023-01-31T06:46:29;101413.53;;;8.86
45565;BMP280;31280;40.408;17.282;2023-01-31T06:48:55;101420.44;;;8.87
45565;BMP280;31280;40.408;17.282;2023-01-31T06:51:21;101422.38;;;8.83
45565;BMP280;31280;40.408;17.282;2023-01-31T06:53:46;101427.38;;;8.88
45565;BMP280;31280;40.408;17.282;2023-01-31T06:56:12;101429.66;;;8.86
45565;BMP280;31280;40.408;17.282;2023-01-31T06:58:38;101435.44;;;8.88
45565;BMP280;31280;40.408;17.282;2023-01-31T07:01:05;101427.75;;;8.83
45565;BMP280;31280;40.408;17.282;2023-01-31T07:03:31;101406.59;;;8.78
45565;BMP280;31280;40.408;17.282;2023-01-31T07:05:57;101429.66;;;8.86
45565;BMP280;31280;40.408;17.282;2023-01-31T07:08:22;101416.63;;;8.88
45565;BMP280;31280;40.408;17.282;2023-01-31T07:10:48;101412.00;;;8.88
45565;BMP280;31280;40.408;17.282;2023-01-31T07:13:14;101429.72;;;8.99
45565;BMP280;31280;40.408;17.282;2023-01-31T07:15:40;101444.31;;;9.05
45565;BMP280;31280;40.408;17.282;2023-01-31T07:18:06;101438.56;;;9.10
45565;BMP280;31280;40.408;17.282;2023-01-31T07:20:32;101430.50;;;9.10
45565;BMP280;31280;40.408;17.282;2023-01-31T07:22:58;101435.88;;;9.10
45565;BMP280;31280;40.408;17.282;2023-01-31T07:25:25;101435.16;;;9.20
45565;BMP280;31280;40.408;17.282;2023-01-31T07:27:51;101433.22;;;9.31
45565;BMP280;31280;40.408;17.282;2023-01-31T07:30:17;101427.06;;;9.27
45565;BMP280;31280;40.408;17.282;2023-01-31T07:32:43;101429.00;;;9.37
45565;BMP280;31280;40.408;17.282;2023-01-31T07:35:09;101445.16;;;9.51
45565;BMP280;31280;40.408;17.282;2023-01-31T07:37:34;101441.31;;;9.58
45565;BMP280;31280;40.408;17.282;2023-01-31T07:40:00;101437.47;;;9.66
45565;BMP280;31280;40.408;17.282;2023-01-31T07:42:27;101455.16;;;9.71
45565;BMP280;31280;40.408;17.282;2023-01-31T07:44:53;101461.28;;;9.82
45565;BMP280;31280;40.408;17.282;2023-01-31T07:47:19;101464.38;;;9.84
45565;BMP280;31280;40.408;17.282;2023-01-31T07:49:44;101450.94;;;9.73
45565;BMP280;31280;40.408;17.282;2023-01-31T07:52:10;101472.09;;;9.88
45565;BMP280;31280;40.408;17.282;2023-01-31T07:54:36;101474.38;;;9.97
45565;BMP280;31280;40.408;17.282;2023-01-31T07:57:08;101485.53;;;10.02
45565;BMP280;31280;40.408;17.282;2023-01-31T07:59:33;101485.91;;;10.04
45565;BMP280;31280;40.408;17.282;2023-01-31T08:01:59;101482.44;;;10.00
45565;BMP280;31280;40.408;17.282;2023-01-31T08:04:43;101480.13;;;10.13
45565;BMP280;31280;40.408;17.282;2023-01-31T08:07:09;101493.94;;;10.21
45565;BMP280;31280;40.408;17.282;2023-01-31T08:09:35;101490.88;;;10.26
45565;BMP280;31280;40.408;17.282;2023-01-31T08:12:01;101492.41;;;10.27
45565;BMP280;31280;40.408;17.282;2023-01-31T08:14:26;101487.75;;;10.38
45565;BMP280;31280;40.408;17.282;2023-01-31T08:16:53;101494.66;;;10.46
45565;BMP280;31280;40.408;17.282;2023-01-31T08:19:20;101505.44;;;10.53
45565;BMP280;31280;40.408;17.282;2023-01-31T08:21:46;101496.56;;;10.56
45565;BMP280;31280;40.408;17.282;2023-01-31T08:24:12;101496.56;;;10.52
45565;BMP280;31280;40.408;17.282;2023-01-31T08:26:37;101508.09;;;10.67
45565;BMP280;31280;40.408;17.282;2023-01-31T08:29:03;101506.50;;;10.76
45565;BMP280;31280;40.408;17.282;2023-01-31T08:31:29;101494.16;;;10.78
45565;BMP280;31280;40.408;17.282;2023-01-31T08:33:55;101516.41;;;11.03
45565;BMP280;31280;40.408;17.282;2023-01-31T08:36:29;101496.72;;;11.06
45565;BMP280;31280;40.408;17.282;2023-01-31T08:38:56;101497.81;;;11.19
45565;BMP280;31280;40.408;17.282;2023-01-31T08:41:23;101490.09;;;11.24
45565;BMP280;31280;40.408;17.282;2023-01-31T08:43:50;101486.28;;;11.18
45565;BMP280;31280;40.408;17.282;2023-01-31T08:46:16;101514.31;;;11.28
45565;BMP280;31280;40.408;17.282;2023-01-31T08:48:42;101496.25;;;11.21
45565;BMP280;31280;40.408;17.282;2023-01-31T08:51:12;101515.50;;;11.27
45565;BMP280;31280;40.408;17.282;2023-01-31T08:53:39;101514.81;;;11.12
45565;BMP280;31280;40.408;17.282;2023-01-31T08:56:07;101521.41;;;11.01
45565;BMP280;31280;40.408;17.282;2023-01-31T08:58:37;101534.91;;;10.94
45565;BMP280;31280;40.408;17.282;2023-01-31T09:01:05;101546.47;;;10.91
45565;BMP280;31280;40.408;17.282;2023-01-31T09:03:32;101538.03;;;10.89
45565;BMP280;31280;40.408;17.282;2023-01-31T09:05:59;101549.50;;;11.00
45565;BMP280;31280;40.408;17.282;2023-01-31T09:08:25;101568.72;;;11.16
45565;BMP280;31280;40.408;17.282;2023-01-31T09:10:52;101572.47;;;11.29
45565;BMP280;31280;40.408;17.282;2023-01-31T09:13:18;101578.22;;;11.44
45565;BMP280;31280;40.408;17.282;2023-01-31T09:15:44;101583.63;;;11.41
45565;BMP280;31280;40.408;17.282;2023-01-31T09:18:10;101576.31;;;11.41
45565;BMP280;31280;40.408;17.282;2023-01-31T09:20:36;101586.38;;;11.27
45565;BMP280;31280;40.408;17.282;2023-01-31T09:23:01;101590.34;;;11.02
45565;BMP280;31280;40.408;17.282;2023-01-31T09:25:27;101593.81;;;10.92
45565;BMP280;31280;40.408;17.282;2023-01-31T09:27:53;101587.69;;;10.85
45565;BMP280;31280;40.408;17.282;2023-01-31T09:30:19;101599.25;;;10.85
45565;BMP280;31280;40.408;17.282;2023-01-31T09:32:45;101597.69;;;10.91
45565;BMP280;31280;40.408;17.282;2023-01-31T09:35:12;101587.66;;;10.99
45565;BMP280;31280;40.408;17.282;2023-01-31T09:37:38;101594.94;;;11.12
45565;BMP280;31280;40.408;17.282;2023-01-31T09:40:05;101593.69;;;11.34
45565;BMP280;31280;40.408;17.282;2023-01-31T09:42:37;101590.88;;;11.54
45565;BMP280;31280;40.408;17.282;2023-01-31T09:45:15;101569.75;;;11.39
45565;BMP280;31280;40.408;17.282;2023-01-31T09:47:49;101603.69;;;11.37
45565;BMP280;31280;40.408;17.282;2023-01-31T09:50:37;101611.88;;;11.16
45565;BMP280;31280;40.408;17.282;2023-01-31T09:53:05;101611.88;;;11.09
45565;BMP280;31280;40.408;17.282;2023-01-31T09:55:41;101621.91;;;11.02
45565;BMP280;31280;40.408;17.282;2023-01-31T10:08:50;101602.06;;;11.53
45565;BMP280;31280;40.408;17.282;2023-01-31T10:11:39;101618.56;;;11.65
45565;BMP280;31280;40.408;17.282;2023-01-31T10:14:38;101616.56;;;11.72
45565;BMP280;31280;40.408;17.282;2023-01-31T10:22:30;101610.91;;;12.10
45565;BMP280;31280;40.408;17.282;2023-01-31T10:25:10;101596.94;;;12.22
45565;BMP280;31280;40.408;17.282;2023-01-31T10:27:47;101588.66;;;12.39
45565;BMP280;31280;40.408;17.282;2023-01-31T10:30:18;101603.34;;;12.35
45565;BMP280;31280;40.408;17.282;2023-01-31T10:32:49;101612.44;;;12.11
45565;BMP280;31280;40.408;17.282;2023-01-31T10:35:39;101611.09;;;11.86
45565;BMP280;31280;40.408;17.282;2023-01-31T10:38:14;101605.72;;;11.83
45565;BMP280;31280;40.408;17.282;2023-01-31T10:40:44;101614.53;;;11.94
45565;BMP280;31280;40.408;17.282;2023-01-31T10:43:15;101608.28;;;12.03
45565;BMP280;31280;40.408;17.282;2023-01-31T10:45:43;101609.38;;;12.09
45565;BMP280;31280;40.408;17.282;2023-01-31T10:48:13;101611.69;;;12.11
45565;BMP280;31280;40.408;17.282;2023-01-31T10:50:42;101600.78;;;12.21
45565;BMP280;31280;40.408;17.282;2023-01-31T10:53:25;101611.53;;;12.28
45565;BMP280;31280;40.408;17.282;2023-01-31T10:56:09;101594.44;;;12.38
45565;BMP280;31280;40.408;17.282;2023-01-31T10:58:36;101594.09;;;12.36
45565;BMP280;31280;40.408;17.282;2023-01-31T11:01:04;101590.25;;;12.33
45565;BMP280;31280;40.408;17.282;2023-01-31T11:03:33;101596.72;;;12.43
45565;BMP280;31280;40.408;17.282;2023-01-31T11:05:59;101605.53;;;12.47
45565;BMP280;31280;40.408;17.282;2023-01-31T11:08:41;101578.47;;;12.54
45565;BMP280;31280;40.408;17.282;2023-01-31T11:11:17;101576.91;;;12.56
45565;BMP280;31280;40.408;17.282;2023-01-31T11:16:29;101569.19;;;12.55
45565;BMP280;31280;40.408;17.282;2023-01-31T11:18:56;101580.72;;;12.59
45565;BMP280;31280;40.408;17.282;2023-01-31T11:21:30;101565.75;;;12.51
45565;BMP280;31280;40.408;17.282;2023-01-31T11:24:01;101565.00;;;12.47
45565;BMP280;31280;40.408;17.282;2023-01-31T11:26:38;101577.56;;;12.63
45565;BMP280;31280;40.408;17.282;2023-01-31T11:29:16;101552.16;;;12.58
45565;BMP280;31280;40.408;17.282;2023-01-31T11:31:43;101571.25;;;12.77
45565;BMP280;31280;40.408;17.282;2023-01-31T11:34:24;101585.19;;;12.75
45565;BMP280;31280;40.408;17.282;2023-01-31T11:36:50;101585.22;;;12.72
45565;BMP280;31280;40.408;17.282;2023-01-31T11:41:51;101596.34;;;12.77
45565;BMP280;31280;40.408;17.282;2023-01-31T11:44:19;101598.22;;;12.84
45565;BMP280;31280;40.408;17.282;2023-01-31T11:46:55;101597.44;;;12.83
45565;BMP280;31280;40.408;17.282;2023-01-31T11:49:39;101600.06;;;12.90
45565;BMP280;31280;40.408;17.282;2023-01-31T11:52:15;101613.22;;;12.88
45565;BMP280;31280;40.408;17.282;2023-01-31T11:55:04;101607.38;;;12.93
45565;BMP280;31280;40.408;17.282;2023-01-31T11:57:39;101607.06;;;12.88
45565;BMP280;31280;40.408;17.282;2023-01-31T12:00:25;101615.19;;;12.88
45565;BMP280;31280;40.408;17.282;2023-01-31T12:03:14;101606.75;;;12.79
45565;BMP280;31280;40.408;17.282;2023-01-31T12:05:43;101620.75;;;12.70
45565;BMP280;31280;40.408;17.282;2023-01-31T12:10:53;101604.59;;;12.63
45565;BMP280;31280;40.408;17.282;2023-01-31T12:13:20;101619.16;;;12.76
45565;BMP280;31280;40.408;17.282;2023-01-31T12:18:24;101627.56;;;12.85
45565;BMP280;31280;40.408;17.282;2023-01-31T12:21:05;101644.69;;;12.72
45565;BMP280;31280;40.408;17.282;2023-01-31T12:23:38;101635.34;;;12.80
45565;BMP280;31280;40.408;17.282;2023-01-31T12:31:35;101634.25;;;13.07
45565;BMP280;31280;40.408;17.282;2023-01-31T12:34:40;101630.28;;;13.15
45565;BMP280;31280;40.408;17.282;2023-01-31T12:40:02;101627.03;;;13.26
45565;BMP280;31280;40.408;17.282;2023-01-31T12:57:33;101639.09;;;13.22
45565;BMP280;31280;40.408;17.282;2023-01-31T13:00:10;101638.75;;;13.20
45565;BMP280;31280;40.408;17.282;2023-01-31T13:05:32;101647.84;;;13.33
45565;BMP280;31280;40.408;17.282;2023-01-31T13:08:11;101641.78;;;13.25
45565;BMP280;31280;40.408;17.282;2023-01-31T13:11:06;101639.31;;;13.34
45565;BMP280;31280;40.408;17.282;2023-01-31T13:13:52;101634.84;;;13.51
45565;BMP280;31280;40.408;17.282;2023-01-31T13:16:23;101642.47;;;13.29
45565;BMP280;31280;40.408;17.282;2023-01-31T13:18:51;101646.25;;;13.35
45565;BMP280;31280;40.408;17.282;2023-01-31T13:21:29;101647.44;;;13.34
45565;BMP280;31280;40.408;17.282;2023-01-31T13:24:12;101641.22;;;13.37
45565;BMP280;31280;40.408;17.282;2023-01-31T13:26:46;101640.56;;;13.26
45565;BMP280;31280;40.408;17.282;2023-01-31T13:29:23;101649.91;;;13.22
45565;BMP280;31280;40.408;17.282;2023-01-31T13:32:00;101656.56;;;13.18
45565;BMP280;31280;40.408;17.282;2023-01-31T13:37:08;101654.31;;;13.09
45565;BMP280;31280;40.408;17.282;2023-01-31T13:39:36;101653.63;;;13.02
45565;BMP280;31280;40.408;17.282;2023-01-31T13:42:04;101666.72;;;13.07
45565;BMP280;31280;40.408;17.282;2023-01-31T13:44:30;101658.31;;;12.98
45565;BMP280;31280;40.408;17.282;2023-01-31T13:47:03;101673.63;;;13.11
45565;BMP280;31280;40.408;17.282;2023-01-31T13:49:51;101681.16;;;13.26
45565;BMP280;31280;40.408;17.282;2023-01-31T13:52:34;101674.88;;;13.36
45565;BMP280;31280;40.408;17.282;2023-01-31T13:55:21;101675.66;;;13.33
45565;BMP280;31280;40.408;17.282;2023-01-31T13:57:57;101662.50;;;13.35
45565;BMP280;31280;40.408;17.282;2023-01-31T14:06:13;101661.81;;;13.28
45565;BMP280;31280;40.408;17.282;2023-01-31T14:13:46;101681.56;;;12.92
45565;BMP280;31280;40.408;17.282;2023-01-31T14:16:45;101672.94;;;13.04
45565;BMP280;31280;40.408;17.282;2023-01-31T14:21:54;101669.66;;;12.83
45565;BMP280;31280;40.408;17.282;2023-01-31T14:57:19;101715.41;;;12.20
45565;BMP280;31280;40.408;17.282;2023-01-31T15:00:23;101713.16;;;12.05
45565;BMP280;31280;40.408;17.282;2023-01-31T15:08:50;101724.84;;;11.92
45565;BMP280;31280;40.408;17.282;2023-01-31T15:13:40;101741.16;;;11.68
45565;BMP280;31280;40.408;17.282;2023-01-31T15:16:22;101746.94;;;11.66
45565;BMP280;31280;40.408;17.282;2023-01-31T15:18:52;101750.38;;;11.70
45565;BMP280;31280;40.408;17.282;2023-01-31T15:21:32;101739.25;;;11.58
45565;BMP280;31280;40.408;17.282;2023-01-31T15:24:01;101740.44;;;11.53
45565;BMP280;31280;40.408;17.282;2023-01-31T15:26:30;101741.22;;;11.50
45565;BMP280;31280;40.408;17.282;2023-01-31T15:28:57;101745.06;;;11.49
45565;BMP280;31280;40.408;17.282;2023-01-31T15:31:34;101743.53;;;11.45
45565;BMP280;31280;40.408;17.282;2023-01-31T15:34:29;101744.75;;;11.41
45565;BMP280;31280;40.408;17.282;2023-01-31T15:37:13;101752.84;;;11.34
45565;BMP280;31280;40.408;17.282;2023-01-31T15:40:20;101755.91;;;11.29
45565;BMP280;31280;40.408;17.282;2023-01-31T15:42:47;101760.53;;;11.28
45565;BMP280;31280;40.408;17.282;2023-01-31T15:45:23;101764.03;;;11.18
45565;BMP280;31280;40.408;17.282;2023-01-31T15:48:00;101770.22;;;11.12
45565;BMP280;31280;40.408;17.282;2023-01-31T15:50:29;101763.66;;;11.13
45565;BMP280;31280;40.408;17.282;2023-01-31T15:52:57;101763.63;;;11.06
45565;BMP280;31280;40.408;17.282;2023-01-31T15:55:26;101766.00;;;10.97
45565;BMP280;31280;40.408;17.282;2023-01-31T15:57:54;101768.28;;;10.95
45565;BMP280;31280;40.408;17.282;2023-01-31T16:00:49;101770.59;;;10.90
45565;BMP280;31280;40.408;17.282;2023-01-31T16:03:20;101759.84;;;10.79
45565;BMP280;31280;40.408;17.282;2023-01-31T16:05:49;101779.84;;;10.89
45565;BMP280;31280;40.408;17.282;2023-01-31T16:08:35;101778.69;;;10.76
45565;BMP280;31280;40.408;17.282;2023-01-31T16:11:06;101761.34;;;10.63
45565;BMP280;31280;40.408;17.282;2023-01-31T16:13:36;101768.66;;;10.63
45565;BMP280;31280;40.408;17.282;2023-01-31T16:16:04;101782.91;;;10.67
45565;BMP280;31280;40.408;17.282;2023-01-31T16:18:31;101786.72;;;10.62
45565;BMP280;31280;40.408;17.282;2023-01-31T16:24:01;101803.66;;;10.56
45565;BMP280;31280;40.408;17.282;2023-01-31T16:26:36;101796.34;;;10.46
45565;BMP280;31280;40.408;17.282;2023-01-31T16:29:13;101814.06;;;10.61
45565;BMP280;31280;40.408;17.282;2023-01-31T16:31:45;101817.50;;;10.54
45565;BMP280;31280;40.408;17.282;2023-01-31T16:34:30;101826.03;;;10.53
45565;BMP280;31280;40.408;17.282;2023-01-31T16:37:05;101817.94;;;10.53
45565;BMP280;31280;40.408;17.282;2023-01-31T16:39:48;101824.81;;;10.47
45565;BMP280;31280;40.408;17.282;2023-01-31T16:44:45;101826.72;;;10.36
45565;BMP280;31280;40.408;17.282;2023-01-31T16:52:41;101817.03;;;10.21
45565;BMP280;31280;40.408;17.282;2023-01-31T16:55:18;101826.28;;;10.20
45565;BMP280;31280;40.408;17.282;2023-01-31T16:57:45;101816.59;;;10.06